createdAt,value
2019-05-11T00:00:41.537Z,54.52
2019-05-11T00:01:41.536Z,53.53
2019-05-11T00:02:41.533Z,49.13
2019-05-11T00:03:41.536Z,50.34
2019-05-11T00:04:41.529Z,48.33
2019-05-11T00:05:41.512Z,47.68
2019-05-11T00:06:41.510Z,48.14
2019-05-11T00:07:41.515Z,50.51
2019-05-11T00:08:41.492Z,49.49
2019-05-11T00:09:56.998Z,52.20
2019-05-11T00:10:43.486Z,48.71
2019-05-11T00:11:41.502Z,50.26
2019-05-11T00:12:41.477Z,50.26
2019-05-11T00:13:41.463Z,51.70
2019-05-11T00:14:41.457Z,52.34
2019-05-11T00:15:41.448Z,52.08
2019-05-11T00:16:41.436Z,52.68
2019-05-11T00:17:41.440Z,53.65
2019-05-11T00:18:41.418Z,53.07
2019-05-11T00:19:41.421Z,55.72
2019-05-11T00:20:41.407Z,49.77
2019-05-11T00:21:41.396Z,51.44
2019-05-11T00:22:41.402Z,50.44
2019-05-11T00:23:41.388Z,50.89
2019-05-11T00:24:41.373Z,56.93
2019-05-11T00:25:41.375Z,52.60
2019-05-11T00:26:41.358Z,49.59
2019-05-11T00:27:41.365Z,49.17
2019-05-11T00:28:41.345Z,51.65
2019-05-11T00:29:41.534Z,50.91
2019-05-11T00:30:41.323Z,52.77
2019-05-11T00:31:41.320Z,53.68
2019-05-11T00:32:41.319Z,51.53
2019-05-11T00:33:41.304Z,49.72
2019-05-11T00:34:41.292Z,48.77
2019-05-11T00:35:41.289Z,49.02
2019-05-11T00:36:41.295Z,49.24
2019-05-11T00:37:41.286Z,48.06
2019-05-11T00:38:41.267Z,54.36
2019-05-11T00:39:41.258Z,56.19
2019-05-11T00:40:41.250Z,52.10
2019-05-11T00:41:41.241Z,48.17
2019-05-11T00:42:41.246Z,52.51
2019-05-11T00:43:41.226Z,51.37
2019-05-11T00:44:41.232Z,49.84
2019-05-11T00:45:41.216Z,48.57
2019-05-11T00:46:41.215Z,50.78
2019-05-11T00:47:41.217Z,49.34
2019-05-11T00:48:42.195Z,51.53
2019-05-11T00:49:41.190Z,52.97
2019-05-11T00:50:41.275Z,51.41
2019-05-11T00:51:41.176Z,53.06
2019-05-11T00:52:41.171Z,52.11
2019-05-11T00:53:41.160Z,55.49
2019-05-11T00:54:41.155Z,51.31
2019-05-11T00:55:41.144Z,49.16
2019-05-11T00:56:41.143Z,52.83
2019-05-11T00:57:41.158Z,51.16
2019-05-11T00:58:41.131Z,49.68
2019-05-11T00:59:41.113Z,48.75
2019-05-11T01:00:41.119Z,47.77
2019-05-11T01:01:41.102Z,49.84
2019-05-11T01:02:41.115Z,50.89
2019-05-11T01:03:41.099Z,46.81
2019-05-11T01:04:41.110Z,48.89
2019-05-11T01:05:41.090Z,50.86
2019-05-11T01:06:41.092Z,50.51
2019-05-11T01:07:41.084Z,49.08
2019-05-11T01:08:41.093Z,49.10
2019-05-11T01:09:41.070Z,47.03
2019-05-11T01:10:42.662Z,50.04
2019-05-11T01:11:42.051Z,50.11
2019-05-11T01:12:41.053Z,55.70
2019-05-11T01:13:41.053Z,59.82
2019-05-11T01:14:41.027Z,50.68
2019-05-11T01:15:41.011Z,45.86
2019-05-11T01:16:42.028Z,48.76
2019-05-11T01:17:41.027Z,50.28
2019-05-11T01:18:41.028Z,49.01
2019-05-11T01:19:41.083Z,47.30
2019-05-11T01:20:41.015Z,47.07
2019-05-11T01:21:41.002Z,47.81
2019-05-11T01:22:40.995Z,48.15
2019-05-11T01:23:40.993Z,49.40
2019-05-11T01:24:40.980Z,50.14
2019-05-11T01:25:40.970Z,51.05
2019-05-11T01:26:40.973Z,51.07
2019-05-11T01:27:40.970Z,51.13
2019-05-11T01:28:40.975Z,46.75
2019-05-11T01:29:40.950Z,47.18
2019-05-11T01:30:40.956Z,48.32
2019-05-11T01:31:40.937Z,48.70
2019-05-11T01:32:40.928Z,50.23
2019-05-11T01:33:40.945Z,54.05
2019-05-11T01:34:47.603Z,53.15
2019-05-11T01:35:40.916Z,53.28
2019-05-11T01:36:40.911Z,50.96
2019-05-11T01:37:40.900Z,51.86
2019-05-11T01:38:40.897Z,49.55
2019-05-11T01:39:40.876Z,53.09
2019-05-11T01:40:40.871Z,52.44
2019-05-11T01:41:40.877Z,51.42
2019-05-11T01:42:40.855Z,48.10
2019-05-11T01:43:40.853Z,51.75
2019-05-11T01:44:40.854Z,56.69
2019-05-11T01:45:40.841Z,52.93
2019-05-11T01:46:40.835Z,50.14
2019-05-11T01:47:40.831Z,52.33
2019-05-11T01:48:40.821Z,50.70
2019-05-11T01:49:40.821Z,50.32
2019-05-11T01:50:40.800Z,51.11
2019-05-11T01:51:40.802Z,49.22
2019-05-11T01:52:40.799Z,52.23
2019-05-11T01:53:40.784Z,51.60
2019-05-11T01:54:40.789Z,51.68
2019-05-11T01:55:40.768Z,53.26
2019-05-11T01:56:40.756Z,52.28
2019-05-11T01:57:40.755Z,50.66
2019-05-11T01:58:40.748Z,50.50
2019-05-11T01:59:40.740Z,52.02
2019-05-11T02:00:40.727Z,51.52
2019-05-11T02:01:40.721Z,49.53
2019-05-11T02:02:40.724Z,48.80
2019-05-11T02:03:40.709Z,48.06
2019-05-11T02:04:40.713Z,52.16
2019-05-11T02:05:40.698Z,49.90
2019-05-11T02:06:40.686Z,50.66
2019-05-11T02:07:40.686Z,50.84
2019-05-11T02:08:40.678Z,50.34
2019-05-11T02:09:40.676Z,50.33
2019-05-11T02:10:40.661Z,50.27
2019-05-11T02:11:40.668Z,52.15
2019-05-11T02:12:40.656Z,54.04
2019-05-11T02:13:40.648Z,53.19
2019-05-11T02:14:40.649Z,54.91
2019-05-11T02:15:40.632Z,59.15
2019-05-11T02:16:41.590Z,50.79
2019-05-11T02:17:40.632Z,51.49
2019-05-11T02:18:40.620Z,52.46
2019-05-11T02:19:40.629Z,56.66
2019-05-11T02:20:40.614Z,56.92
2019-05-11T02:21:40.607Z,56.27
2019-05-11T02:22:40.593Z,55.44
2019-05-11T02:23:40.585Z,55.08
2019-05-11T02:24:40.613Z,55.74
2019-05-11T02:25:40.587Z,52.44
2019-05-11T02:26:40.576Z,51.38
2019-05-11T02:27:40.569Z,52.36
2019-05-11T02:28:40.564Z,49.59
2019-05-11T02:29:41.564Z,53.92
2019-05-11T02:30:41.564Z,55.18
2019-05-11T02:31:40.540Z,52.77
2019-05-11T02:32:40.557Z,49.02
2019-05-11T02:33:40.556Z,53.19
2019-05-11T02:34:40.543Z,49.31
2019-05-11T02:35:40.555Z,49.21
2019-05-11T02:36:40.525Z,50.08
2019-05-11T02:37:40.575Z,50.38
2019-05-11T02:38:40.501Z,50.22
2019-05-11T02:39:40.522Z,49.21
2019-05-11T02:40:40.513Z,47.94
2019-05-11T02:41:40.499Z,47.48
2019-05-11T02:42:40.498Z,48.70
2019-05-11T02:43:40.498Z,46.50
2019-05-11T02:44:40.480Z,48.00
2019-05-11T02:45:40.495Z,54.68
2019-05-11T02:46:40.471Z,46.42
2019-05-11T02:47:40.470Z,47.71
2019-05-11T02:48:40.456Z,47.98
2019-05-11T02:49:40.451Z,53.57
2019-05-11T02:50:40.458Z,51.10
2019-05-11T02:51:40.432Z,48.15
2019-05-11T02:52:40.456Z,48.65
2019-05-11T02:53:40.420Z,49.01
2019-05-11T02:54:40.415Z,52.15
2019-05-11T02:55:40.434Z,54.14
2019-05-11T02:56:40.397Z,54.10
2019-05-11T02:57:40.386Z,57.34
2019-05-11T02:58:40.380Z,57.65
2019-05-11T02:59:40.400Z,57.35
2019-05-11T03:00:40.430Z,57.81
2019-05-11T03:01:40.373Z,57.79
2019-05-11T03:02:40.354Z,56.81
2019-05-11T03:03:40.336Z,58.24
2019-05-11T03:04:40.332Z,56.30
2019-05-11T03:05:40.328Z,55.43
2019-05-11T03:06:40.328Z,55.28
2019-05-11T03:07:40.306Z,54.00
2019-05-11T03:08:40.311Z,54.80
2019-05-11T03:09:40.292Z,56.44
2019-05-11T03:10:40.308Z,54.87
2019-05-11T03:11:55.006Z,54.50
2019-05-11T03:12:42.333Z,54.57
2019-05-11T03:13:40.296Z,56.06
2019-05-11T03:14:40.298Z,58.63
2019-05-11T03:15:40.293Z,58.14
2019-05-11T03:16:40.292Z,56.65
2019-05-11T03:17:40.359Z,57.10
2019-05-11T03:18:40.293Z,55.66
2019-05-11T03:19:40.303Z,54.29
2019-05-11T03:20:40.284Z,56.30
2019-05-11T03:21:40.308Z,56.23
2019-05-11T03:22:40.273Z,54.38
2019-05-11T03:23:40.264Z,53.86
2019-05-11T03:24:40.264Z,54.58
2019-05-11T03:25:40.259Z,56.34
2019-05-11T03:26:40.249Z,54.94
2019-05-11T03:27:40.267Z,54.21
2019-05-11T03:28:40.247Z,52.42
2019-05-11T03:29:40.217Z,51.58
2019-05-11T03:30:40.213Z,50.56
2019-05-11T03:31:40.232Z,51.66
2019-05-11T03:32:40.200Z,54.77
2019-05-11T03:33:40.198Z,51.77
2019-05-11T03:34:40.201Z,55.11
2019-05-11T03:35:40.231Z,54.48
2019-05-11T03:36:40.183Z,56.72
2019-05-11T03:37:40.163Z,55.97
2019-05-11T03:38:40.157Z,53.18
2019-05-11T03:39:40.153Z,53.73
2019-05-11T03:40:40.134Z,54.39
2019-05-11T03:41:40.139Z,52.26
2019-05-11T03:42:40.131Z,52.11
2019-05-11T03:43:40.170Z,52.67
2019-05-11T03:44:41.028Z,53.76
2019-05-11T03:45:40.098Z,56.93
2019-05-11T03:46:40.104Z,54.55
2019-05-11T03:47:40.093Z,54.10
2019-05-11T03:48:40.091Z,54.45
2019-05-11T03:49:40.070Z,55.64
2019-05-11T03:50:40.061Z,54.22
2019-05-11T03:51:40.065Z,54.16
2019-05-11T03:52:40.050Z,53.17
2019-05-11T03:53:40.045Z,54.55
2019-05-11T03:54:40.596Z,54.33
2019-05-11T03:55:40.029Z,53.38
2019-05-11T03:56:40.052Z,55.54
2019-05-11T03:57:40.017Z,56.83
2019-05-11T03:58:40.001Z,55.43
2019-05-11T03:59:40.003Z,55.63
2019-05-11T04:00:39.999Z,55.65
2019-05-11T04:01:39.991Z,56.98
2019-05-11T04:02:39.990Z,57.22
2019-05-11T04:03:39.966Z,56.62
2019-05-11T04:04:40.003Z,56.05
2019-05-11T04:05:39.959Z,56.61
2019-05-11T04:06:39.977Z,57.02
2019-05-11T04:07:39.965Z,54.67
2019-05-11T04:08:40.602Z,57.13
2019-05-11T04:09:39.925Z,55.11
2019-05-11T04:10:39.923Z,54.75
2019-05-11T04:11:39.918Z,56.23
2019-05-11T04:12:39.912Z,55.99
2019-05-11T04:13:39.897Z,57.35
2019-05-11T04:14:39.889Z,58.53
2019-05-11T04:15:39.888Z,60.00
2019-05-11T04:16:39.872Z,59.28
2019-05-11T04:17:39.877Z,58.20
2019-05-11T04:18:39.858Z,58.10
2019-05-11T04:19:39.855Z,58.02
2019-05-11T04:20:39.844Z,58.66
2019-05-11T04:21:39.836Z,57.85
2019-05-11T04:22:39.843Z,58.03
2019-05-11T04:23:39.818Z,58.84
2019-05-11T04:24:39.828Z,57.97
2019-05-11T04:25:39.819Z,57.07
2019-05-11T04:26:39.801Z,55.75
2019-05-11T04:27:39.829Z,56.09
2019-05-11T04:28:39.808Z,55.37
2019-05-11T04:29:40.796Z,55.12
2019-05-11T04:30:39.804Z,55.05
2019-05-11T04:31:39.808Z,56.63
2019-05-11T04:32:39.801Z,56.75
2019-05-11T04:33:39.791Z,56.02
2019-05-11T04:34:39.780Z,56.70
2019-05-11T04:35:39.789Z,56.92
2019-05-11T04:36:39.780Z,56.58
2019-05-11T04:37:39.767Z,56.34
2019-05-11T04:38:39.756Z,56.57
2019-05-11T04:39:39.751Z,56.43
2019-05-11T04:40:39.753Z,56.32
2019-05-11T04:41:39.844Z,56.64
2019-05-11T04:42:54.383Z,58.37
2019-05-11T04:43:41.723Z,57.09
2019-05-11T04:44:39.714Z,55.22
2019-05-11T04:45:39.712Z,54.18
2019-05-11T04:46:39.703Z,53.18
2019-05-11T04:47:39.701Z,53.39
2019-05-11T04:48:39.696Z,55.35
2019-05-11T04:49:40.693Z,54.97
2019-05-11T04:50:39.704Z,54.71
2019-05-11T04:51:39.702Z,53.96
2019-05-11T04:52:39.687Z,55.88
2019-05-11T04:53:39.687Z,55.94
2019-05-11T04:54:39.682Z,55.37
2019-05-11T04:55:39.677Z,55.78
2019-05-11T04:56:39.671Z,55.97
2019-05-11T04:57:39.655Z,55.28
2019-05-11T04:58:39.649Z,55.40
2019-05-11T04:59:39.639Z,54.84
2019-05-11T05:00:39.633Z,55.09
2019-05-11T05:01:39.634Z,55.51
2019-05-11T05:02:39.610Z,56.69
2019-05-11T05:03:41.140Z,55.90
2019-05-11T05:04:40.602Z,55.58
2019-05-11T05:05:39.596Z,56.89
2019-05-11T05:06:39.588Z,54.06
2019-05-11T05:07:47.661Z,54.59
2019-05-11T05:08:41.568Z,55.22
2019-05-11T05:09:42.513Z,55.00
2019-05-11T05:10:41.549Z,56.05
2019-05-11T05:11:39.556Z,56.91
2019-05-11T05:12:39.561Z,60.88
2019-05-11T05:13:39.547Z,57.95
2019-05-11T05:14:39.550Z,56.74
2019-05-11T05:15:39.536Z,56.38
2019-05-11T05:16:39.540Z,57.36
2019-05-11T05:17:39.524Z,57.07
2019-05-11T05:18:39.514Z,57.39
2019-05-11T05:19:39.508Z,56.66
2019-05-11T05:20:39.499Z,58.09
2019-05-11T05:21:39.577Z,58.85
2019-05-11T05:22:39.500Z,57.04
2019-05-11T05:23:39.476Z,56.41
2019-05-11T05:24:39.481Z,55.92
2019-05-11T05:25:39.459Z,56.41
2019-05-11T05:26:39.457Z,57.14
2019-05-11T05:27:39.446Z,59.04
2019-05-11T05:28:39.439Z,59.59
2019-05-11T05:29:39.457Z,57.58
2019-05-11T05:30:39.424Z,58.33
2019-05-11T05:31:39.432Z,55.55
2019-05-11T05:32:39.425Z,55.13
2019-05-11T05:33:39.409Z,55.95
2019-05-11T05:34:39.409Z,55.80
2019-05-11T05:35:39.397Z,53.70
2019-05-11T05:36:39.393Z,56.08
2019-05-11T05:37:39.384Z,54.61
2019-05-11T05:38:39.370Z,53.08
2019-05-11T05:39:39.363Z,56.68
2019-05-11T05:40:39.354Z,53.59
2019-05-11T05:41:39.390Z,54.12
2019-05-11T05:42:39.337Z,54.97
2019-05-11T05:43:39.324Z,55.30
2019-05-11T05:44:39.345Z,54.95
2019-05-11T05:45:39.336Z,54.78
2019-05-11T05:46:39.354Z,55.60
2019-05-11T05:47:39.354Z,54.43
2019-05-11T05:48:39.323Z,55.10
2019-05-11T05:49:39.334Z,53.91
2019-05-11T05:50:39.317Z,52.06
2019-05-11T05:51:39.314Z,53.10
2019-05-11T05:52:39.331Z,53.95
2019-05-11T05:53:39.321Z,53.18
2019-05-11T05:54:39.319Z,53.94
2019-05-11T05:55:39.302Z,55.24
2019-05-11T05:56:39.295Z,54.94
2019-05-11T05:57:39.304Z,55.12
2019-05-11T05:58:39.295Z,56.37
2019-05-11T05:59:39.276Z,58.46
2019-05-11T06:00:39.270Z,57.63
2019-05-11T06:01:39.278Z,57.14
2019-05-11T06:02:39.334Z,56.56
2019-05-11T06:03:39.284Z,55.27
2019-05-11T06:04:39.272Z,55.40
2019-05-11T06:05:39.280Z,56.51
2019-05-11T06:06:39.295Z,56.78
2019-05-11T06:07:39.281Z,57.08
2019-05-11T06:08:43.000Z,56.66
2019-05-11T06:09:39.258Z,57.49
2019-05-11T06:10:39.251Z,56.38
2019-05-11T06:11:39.239Z,56.01
2019-05-11T06:12:39.242Z,56.25
2019-05-11T06:13:45.062Z,55.02
2019-05-11T06:14:41.214Z,56.34
2019-05-11T06:15:39.215Z,54.75
2019-05-11T06:16:39.203Z,56.93
2019-05-11T06:17:39.207Z,56.79
2019-05-11T06:18:39.194Z,57.63
2019-05-11T06:19:39.186Z,59.78
2019-05-11T06:20:39.172Z,57.07
2019-05-11T06:21:39.183Z,56.06
2019-05-11T06:22:39.176Z,54.49
2019-05-11T06:23:39.152Z,56.16
2019-05-11T06:24:39.182Z,56.54
2019-05-11T06:25:39.166Z,56.74
2019-05-11T06:26:39.158Z,55.02
2019-05-11T06:27:39.156Z,55.13
2019-05-11T06:28:39.141Z,56.40
2019-05-11T06:29:39.152Z,55.92
2019-05-11T06:30:39.131Z,55.24
2019-05-11T06:31:39.119Z,56.05
2019-05-11T06:32:39.124Z,56.55
2019-05-11T06:33:39.110Z,56.27
2019-05-11T06:34:39.092Z,55.51
2019-05-11T06:35:39.087Z,56.58
2019-05-11T06:36:39.074Z,55.29
2019-05-11T06:37:39.117Z,56.47
2019-05-11T06:38:39.097Z,55.49
2019-05-11T06:39:39.083Z,55.56
2019-05-11T06:40:39.073Z,55.25
2019-05-11T06:41:39.070Z,54.55
2019-05-11T06:42:39.081Z,54.94
2019-05-11T06:43:39.080Z,56.49
2019-05-11T06:44:39.069Z,56.80
2019-05-11T06:45:39.056Z,56.56
2019-05-11T06:46:39.054Z,56.31
2019-05-11T06:47:39.043Z,56.88
2019-05-11T06:48:39.048Z,57.44
2019-05-11T06:49:39.038Z,57.00
2019-05-11T06:50:39.028Z,56.57
2019-05-11T06:51:40.554Z,57.69
2019-05-11T06:52:40.008Z,57.82
2019-05-11T06:53:39.030Z,56.09
2019-05-11T06:54:38.991Z,57.77
2019-05-11T06:55:38.969Z,59.23
2019-05-11T06:56:39.979Z,55.42
2019-05-11T06:57:38.991Z,56.43
2019-05-11T06:58:38.997Z,56.81
2019-05-11T06:59:38.993Z,56.10
2019-05-11T07:00:38.976Z,56.25
2019-05-11T07:01:38.963Z,55.14
2019-05-11T07:02:38.965Z,54.35
2019-05-11T07:03:38.963Z,55.43
2019-05-11T07:04:38.949Z,55.05
2019-05-11T07:05:38.934Z,56.76
2019-05-11T07:06:38.926Z,57.88
2019-05-11T07:07:47.440Z,56.35
2019-05-11T07:08:40.948Z,57.35
2019-05-11T07:09:38.930Z,53.83
2019-05-11T07:10:38.931Z,55.80
2019-05-11T07:11:38.910Z,55.03
2019-05-11T07:12:38.902Z,54.34
2019-05-11T07:13:38.910Z,55.60
2019-05-11T07:14:38.889Z,55.92
2019-05-11T07:15:38.885Z,54.76
2019-05-11T07:16:38.880Z,54.32
2019-05-11T07:17:38.872Z,54.27
2019-05-11T07:18:38.875Z,54.87
2019-05-11T07:19:38.851Z,55.43
2019-05-11T07:20:50.049Z,56.35
2019-05-11T07:21:40.841Z,57.18
2019-05-11T07:22:38.832Z,57.40
2019-05-11T07:23:38.854Z,59.05
2019-05-11T07:24:38.811Z,55.21
2019-05-11T07:25:38.811Z,56.28
2019-05-11T07:26:38.799Z,56.24
2019-05-11T07:27:38.808Z,57.92
2019-05-11T07:28:38.802Z,56.65
2019-05-11T07:29:38.806Z,56.34
2019-05-11T07:30:38.791Z,56.66
2019-05-11T07:31:38.789Z,56.71
2019-05-11T07:32:38.783Z,57.17
2019-05-11T07:33:38.770Z,57.05
2019-05-11T07:34:48.743Z,56.17
2019-05-11T07:35:38.754Z,56.21
2019-05-11T07:36:38.957Z,55.92
2019-05-11T07:37:39.754Z,59.28
2019-05-11T07:38:38.734Z,58.52
2019-05-11T07:39:38.745Z,57.44
2019-05-11T07:40:38.720Z,56.25
2019-05-11T07:41:38.920Z,57.55
2019-05-11T07:42:38.709Z,56.03
2019-05-11T07:43:38.702Z,56.47
2019-05-11T07:44:41.707Z,57.91
2019-05-11T07:45:39.686Z,58.13
2019-05-11T07:46:38.684Z,58.77
2019-05-11T07:47:38.685Z,59.65
2019-05-11T07:48:38.883Z,59.33
2019-05-11T07:49:39.673Z,59.35
2019-05-11T07:50:38.904Z,59.47
2019-05-11T07:51:39.643Z,57.84
2019-05-11T07:52:38.648Z,58.82
2019-05-11T07:53:38.634Z,59.60
2019-05-11T07:54:38.699Z,60.29
2019-05-11T07:55:38.706Z,60.21
2019-05-11T07:56:39.153Z,60.75
2019-05-11T07:57:39.605Z,62.02
2019-05-11T07:58:38.889Z,60.78
2019-05-11T07:59:39.589Z,60.30
2019-05-11T08:00:40.048Z,59.02
2019-05-11T08:01:39.580Z,58.36
2019-05-11T08:02:38.942Z,58.19
2019-05-11T08:03:39.551Z,58.17
2019-05-11T08:04:38.561Z,58.37
2019-05-11T08:05:38.707Z,59.04
2019-05-11T08:06:39.543Z,58.15
2019-05-11T08:07:38.521Z,58.68
2019-05-11T08:08:38.691Z,57.36
2019-05-11T08:09:38.533Z,60.84
2019-05-11T08:10:39.165Z,57.69
2019-05-11T08:11:39.522Z,57.00
2019-05-11T08:12:39.411Z,56.22
2019-05-11T08:13:39.482Z,55.85
2019-05-11T08:14:55.957Z,54.13
2019-05-11T08:15:40.469Z,53.64
2019-05-11T08:16:39.353Z,54.09
2019-05-11T08:17:38.457Z,54.91
2019-05-11T08:18:38.852Z,55.83
2019-05-11T08:19:39.433Z,55.13
2019-05-11T08:20:39.429Z,54.15
2019-05-11T08:21:38.955Z,55.61
2019-05-11T08:22:39.429Z,55.31
2019-05-11T08:23:38.407Z,55.04
2019-05-11T08:24:38.413Z,55.67
2019-05-11T08:25:38.405Z,56.13
2019-05-11T08:26:38.706Z,56.14
2019-05-11T08:27:39.379Z,54.88
2019-05-11T08:28:38.393Z,55.83
2019-05-11T08:29:38.570Z,54.99
2019-05-11T08:30:39.383Z,56.48
2019-05-11T08:31:38.644Z,55.85
2019-05-11T08:32:39.367Z,56.90
2019-05-11T08:33:38.998Z,55.26
2019-05-11T08:34:39.832Z,54.31
2019-05-11T08:35:39.339Z,55.78
2019-05-11T08:36:38.333Z,54.29
2019-05-11T08:37:38.925Z,54.93
2019-05-11T08:38:39.321Z,56.72
2019-05-11T08:39:38.310Z,56.61
2019-05-11T08:40:38.315Z,56.90
2019-05-11T08:41:38.653Z,57.49
2019-05-11T08:42:39.285Z,57.60
2019-05-11T08:43:38.835Z,55.34
2019-05-11T08:44:39.276Z,55.10
2019-05-11T08:45:39.247Z,54.46
2019-05-11T08:46:39.266Z,54.55
2019-05-11T08:47:38.255Z,54.00
2019-05-11T08:48:38.930Z,54.68
2019-05-11T08:49:39.239Z,55.06
2019-05-11T08:50:38.421Z,56.68
2019-05-11T08:51:38.729Z,55.01
2019-05-11T08:52:39.236Z,56.39
2019-05-11T08:53:38.858Z,55.26
2019-05-11T08:54:39.223Z,54.74
2019-05-11T08:55:38.429Z,54.45
2019-05-11T08:56:38.495Z,53.98
2019-05-11T08:57:39.202Z,56.03
2019-05-11T08:58:38.237Z,56.63
2019-05-11T08:59:38.277Z,56.17
2019-05-11T09:00:39.221Z,56.91
2019-05-11T09:01:39.311Z,55.23
2019-05-11T09:02:39.165Z,54.14
2019-05-11T09:03:38.824Z,54.01
2019-05-11T09:04:41.928Z,55.43
2019-05-11T09:05:39.150Z,54.80
2019-05-11T09:06:38.137Z,56.47
2019-05-11T09:07:38.524Z,55.43
2019-05-11T09:08:39.125Z,54.29
2019-05-11T09:09:38.232Z,55.49
2019-05-11T09:10:39.792Z,54.53
2019-05-11T09:11:39.119Z,56.47
2019-05-11T09:12:38.376Z,55.96
2019-05-11T09:13:39.469Z,54.56
2019-05-11T09:14:39.109Z,54.13
2019-05-11T09:15:40.605Z,55.36
2019-05-11T09:16:39.110Z,56.86
2019-05-11T09:17:38.347Z,57.38
2019-05-11T09:18:39.104Z,57.19
2019-05-11T09:19:38.786Z,56.57
2019-05-11T09:20:39.107Z,56.72
2019-05-11T09:21:38.495Z,57.00
2019-05-11T09:22:39.093Z,57.73
2019-05-11T09:23:40.696Z,57.24
2019-05-11T09:24:39.096Z,57.79
2019-05-11T09:25:38.564Z,57.18
2019-05-11T09:26:39.177Z,58.31
2019-05-11T09:27:38.107Z,59.20
2019-05-11T09:28:38.508Z,58.63
2019-05-11T09:29:39.098Z,58.48
2019-05-11T09:30:38.118Z,59.06
2019-05-11T09:31:38.358Z,58.31
2019-05-11T09:32:39.107Z,58.07
2019-05-11T09:33:38.561Z,58.16
2019-05-11T09:34:39.090Z,58.82
2019-05-11T09:35:48.533Z,57.73
2019-05-11T09:36:40.137Z,60.64
2019-05-11T09:37:38.328Z,61.34
2019-05-11T09:38:38.459Z,58.14
2019-05-11T09:39:39.054Z,56.74
2019-05-11T09:40:38.708Z,56.30
2019-05-11T09:41:39.050Z,56.32
2019-05-11T09:42:38.883Z,56.83
2019-05-11T09:43:39.701Z,59.05
2019-05-11T09:44:38.647Z,58.05
2019-05-11T09:45:48.185Z,56.80
2019-05-11T09:46:40.023Z,56.67
2019-05-11T09:47:38.686Z,56.67
2019-05-11T09:48:38.987Z,57.64
2019-05-11T09:49:47.142Z,57.23
2019-05-11T09:50:39.976Z,57.56
2019-05-11T09:51:38.193Z,55.92
2019-05-11T09:52:38.970Z,55.93
2019-05-11T09:53:38.876Z,55.72
2019-05-11T09:54:38.943Z,56.63
2019-05-11T09:55:38.892Z,56.48
2019-05-11T09:56:38.933Z,57.21
2019-05-11T09:57:38.295Z,57.77
2019-05-11T09:58:38.930Z,56.99
2019-05-11T09:59:38.607Z,55.78
2019-05-11T10:00:39.036Z,56.42
2019-05-11T10:01:38.067Z,56.34
2019-05-11T10:02:38.699Z,57.20
2019-05-11T10:03:38.924Z,55.99
2019-05-11T10:04:38.212Z,57.51
2019-05-11T10:05:39.665Z,57.32
2019-05-11T10:06:38.792Z,56.83
2019-05-11T10:07:38.834Z,57.36
2019-05-11T10:08:38.204Z,57.99
2019-05-11T10:09:38.849Z,59.53
2019-05-11T10:10:38.473Z,58.06
2019-05-11T10:11:39.946Z,57.33
2019-05-11T10:12:38.807Z,55.94
2019-05-11T10:13:38.442Z,56.36
2019-05-11T10:14:38.789Z,57.11
2019-05-11T10:15:38.523Z,56.01
2019-05-11T10:16:38.874Z,55.44
2019-05-11T10:17:38.401Z,54.81
2019-05-11T10:18:38.790Z,54.69
2019-05-11T10:19:39.605Z,55.92
2019-05-11T10:20:39.176Z,55.60
2019-05-11T10:21:38.774Z,55.08
2019-05-11T10:22:38.473Z,55.11
2019-05-11T10:23:42.163Z,56.19
2019-05-11T10:24:38.481Z,58.40
2019-05-11T10:25:40.435Z,58.30
2019-05-11T10:26:38.667Z,58.00
2019-05-11T10:27:40.072Z,56.77
2019-05-11T10:28:38.906Z,56.06
2019-05-11T10:29:38.815Z,57.20
2019-05-11T10:30:38.567Z,58.05
2019-05-11T10:31:38.828Z,57.98
2019-05-11T10:32:38.070Z,57.27
2019-05-11T10:33:40.796Z,57.33
2019-05-11T10:34:40.373Z,57.87
2019-05-11T10:35:39.640Z,56.87
2019-05-11T10:36:39.222Z,57.86
2019-05-11T10:37:39.168Z,57.56
2019-05-11T10:38:42.687Z,57.86
2019-05-11T10:39:38.992Z,56.64
2019-05-11T10:40:39.942Z,57.89
2019-05-11T10:41:40.297Z,58.98
2019-05-11T10:42:38.446Z,58.52
2019-05-11T10:43:40.583Z,57.82
